Time;durP1;ratioP1;P1;durP2;ratioP2;P2;SDS_P1;SDS_P2;PMS_P1;PMS_P2;Temp;Humidity;BMP_temperature;BMP_pressure;BME280_temperature;BME280_humidity;BME280_pressure;Samples;Min_cycle;Max_cycle;Signal;HPM_P1;HPM_P2
2022/07/08 00:01:54;;;;;;;8.27;1.25;;;16.90;99.90;;;;;;4722255;30;20053;-70
2022/07/08 00:04:20;;;;;;;11.55;1.20;;;16.90;99.90;;;;;;4722040;30;20053;-69
2022/07/08 00:06:46;;;;;;;8.70;1.30;;;16.90;99.90;;;;;;4722038;30;20506;-69
2022/07/08 00:09:12;;;;;;;9.70;1.38;;;16.90;99.90;;;;;;4722393;30;20049;-69
2022/07/08 00:11:39;;;;;;;7.38;1.10;;;16.90;99.90;;;;;;4722196;30;20045;-69
2022/07/08 00:14:05;;;;;;;8.82;1.38;;;16.90;99.90;;;;;;4721891;30;20055;-69
2022/07/08 00:16:30;;;;;;;8.50;1.08;;;17.00;99.90;;;;;;4721947;30;20060;-70
2022/07/08 00:18:56;;;;;;;10.73;1.52;;;17.00;99.90;;;;;;4721843;30;20064;-69
2022/07/08 00:21:22;;;;;;;11.25;1.40;;;17.00;99.90;;;;;;4720935;30;20057;-69
2022/07/08 00:23:48;;;;;;;11.63;1.38;;;17.00;99.90;;;;;;4721998;30;20087;-69
2022/07/08 00:26:14;;;;;;;11.60;1.48;;;17.00;99.90;;;;;;4721869;30;20060;-69
2022/07/08 00:28:39;;;;;;;8.98;1.25;;;17.00;99.90;;;;;;4720879;30;20049;-69
2022/07/08 00:31:05;;;;;;;9.63;1.58;;;17.00;99.90;;;;;;4722031;30;20056;-69
2022/07/08 00:33:30;;;;;;;11.43;1.30;;;16.90;99.90;;;;;;4720703;30;20060;-69
2022/07/08 00:35:56;;;;;;;12.38;1.30;;;16.80;99.90;;;;;;4721903;30;20108;-69
2022/07/08 00:38:22;;;;;;;10.68;1.63;;;16.70;99.90;;;;;;4720877;30;20084;-69
2022/07/08 00:40:48;;;;;;;8.35;1.50;;;16.60;99.90;;;;;;4721926;30;20394;-69
2022/07/08 00:43:40;;;;;;;9.88;1.88;;;16.60;99.90;;;;;;4721516;30;20073;-69
2022/07/08 00:46:07;;;;;;;11.43;1.50;;;16.50;99.90;;;;;;4720886;30;20053;-69
2022/07/08 00:48:33;;;;;;;13.55;1.55;;;16.50;99.90;;;;;;4720626;30;20045;-69
2022/07/08 00:51:00;;;;;;;13.85;1.83;;;16.40;99.90;;;;;;4721476;30;20045;-69
2022/07/08 00:53:32;;;;;;;7.28;1.40;;;16.30;99.90;;;;;;4720171;30;20080;-69
2022/07/08 00:55:59;;;;;;;15.70;1.48;;;16.40;99.90;;;;;;4721521;30;20053;-69
2022/07/08 00:58:25;;;;;;;12.50;1.73;;;16.50;99.90;;;;;;4721317;30;20436;-69
2022/07/08 01:00:52;;;;;;;8.20;1.50;;;16.50;99.90;;;;;;4720614;30;20321;-69
2022/07/08 01:03:18;;;;;;;12.60;1.42;;;16.20;99.90;;;;;;4721146;30;20049;-69
2022/07/08 01:05:44;;;;;;;11.48;1.63;;;16.40;99.90;;;;;;4721389;30;20052;-69
2022/07/08 01:08:10;;;;;;;10.20;1.38;;;16.40;99.90;;;;;;4721046;30;20211;-69
2022/07/08 01:10:37;;;;;;;16.10;2.13;;;16.50;99.90;;;;;;4720084;30;20097;-69
2022/07/08 01:13:03;;;;;;;9.57;1.83;;;16.40;99.90;;;;;;4721009;30;20064;-69
2022/07/08 01:15:29;;;;;;;13.43;1.70;;;16.40;99.90;;;;;;4720006;30;20052;-69
2022/07/08 01:17:54;;;;;;;7.30;0.98;;;16.20;99.90;;;;;;4720713;30;20065;-69
2022/07/08 01:20:20;;;;;;;6.60;1.40;;;16.20;99.90;;;;;;4721014;30;20314;-69
2022/07/08 01:22:46;;;;;;;9.23;2.30;;;16.30;99.90;;;;;;4721198;30;20057;-69
2022/07/08 01:25:12;;;;;;;16.48;2.28;;;16.40;99.90;;;;;;4720916;30;20428;-69
2022/07/08 01:27:38;;;;;;;9.13;1.40;;;16.40;99.90;;;;;;4721053;30;20095;-69
2022/07/08 01:30:06;;;;;;;6.65;1.33;;;16.40;99.90;;;;;;4719897;30;20049;-69
2022/07/08 01:32:41;;;;;;;7.97;1.13;;;16.40;99.90;;;;;;4719840;30;20052;-69
2022/07/08 01:35:08;;;;;;;10.23;1.20;;;16.30;99.90;;;;;;4720797;30;20130;-69
2022/07/08 01:37:34;;;;;;;7.25;1.13;;;16.40;99.90;;;;;;4720710;30;20041;-70
2022/07/08 01:39:59;;;;;;;7.85;1.27;;;16.30;99.90;;;;;;4720594;30;20045;-70
2022/07/08 01:42:25;;;;;;;6.65;1.30;;;16.40;99.90;;;;;;4720653;30;20045;-69
2022/07/08 01:44:51;;;;;;;12.13;1.40;;;16.50;99.90;;;;;;4720223;30;20440;-69
2022/07/08 01:47:17;;;;;;;10.23;1.30;;;16.40;99.90;;;;;;4720717;30;20041;-69
2022/07/08 01:49:43;;;;;;;15.02;1.52;;;16.40;99.90;;;;;;4720587;30;20467;-69
2022/07/08 01:52:09;;;;;;;11.07;1.35;;;16.40;99.90;;;;;;4719782;30;20041;-69
2022/07/08 01:54:34;;;;;;;12.25;1.25;;;16.30;99.90;;;;;;4720739;30;20316;-69
2022/07/08 01:57:15;;;;;;;12.82;1.63;;;16.30;99.90;;;;;;4720715;30;20053;-69
2022/07/08 01:59:42;;;;;;;13.05;1.65;;;16.20;99.90;;;;;;4720409;30;20052;-69
2022/07/08 02:02:09;;;;;;;11.40;1.52;;;16.10;99.90;;;;;;4720485;30;20472;-69
2022/07/08 02:04:34;;;;;;;10.15;1.50;;;16.10;99.90;;;;;;4719690;30;20117;-69
2022/07/08 02:07:00;;;;;;;4.30;1.25;;;16.10;99.90;;;;;;4719457;30;20124;-69
2022/07/08 02:09:26;;;;;;;8.38;1.35;;;16.10;99.90;;;;;;4720300;30;20041;-69
2022/07/08 02:14:36;;;;;;;5.00;0.90;;;16.10;99.90;;;;;;4720167;30;20071;-69
2022/07/08 02:17:01;;;;;;;10.63;1.38;;;16.00;99.90;;;;;;4720206;30;20045;-71
2022/07/08 02:19:27;;;;;;;7.22;1.40;;;15.90;99.90;;;;;;4720493;30;20053;-69
2022/07/08 02:21:53;;;;;;;9.02;1.40;;;15.90;99.90;;;;;;4720378;30;20120;-69
2022/07/08 02:24:18;;;;;;;6.63;0.90;;;15.80;99.90;;;;;;4720275;30;20041;-69
2022/07/08 02:26:44;;;;;;;4.43;0.93;;;15.70;99.90;;;;;;4720195;30;20053;-69
2022/07/08 02:29:10;;;;;;;7.57;1.00;;;15.70;99.90;;;;;;4719474;30;20041;-69
2022/07/08 02:31:35;;;;;;;12.07;1.42;;;15.60;99.90;;;;;;4720229;30;20056;-69
2022/07/08 02:34:01;;;;;;;5.75;1.30;;;15.50;99.90;;;;;;4720219;30;20428;-70
2022/07/08 02:36:27;;;;;;;7.88;0.93;;;15.40;99.90;;;;;;4720421;30;20045;-69
2022/07/08 02:38:53;;;;;;;7.25;1.23;;;15.40;99.90;;;;;;4720340;30;20053;-69
2022/07/08 02:41:19;;;;;;;6.35;0.80;;;15.40;99.90;;;;;;4720414;30;20041;-69
2022/07/08 02:43:45;;;;;;;5.18;0.93;;;15.40;99.90;;;;;;4720101;30;20135;-69
2022/07/08 02:46:10;;;;;;;9.10;0.98;;;15.40;99.90;;;;;;4719955;30;20132;-69
2022/07/08 02:48:36;;;;;;;8.32;1.13;;;15.30;99.90;;;;;;4720097;30;20053;-69
2022/07/08 02:51:03;;;;;;;8.52;1.60;;;15.40;99.90;;;;;;4719442;30;20052;-69
2022/07/08 02:53:29;;;;;;;4.90;1.10;;;15.40;99.90;;;;;;4719900;30;20424;-69
2022/07/08 02:55:54;;;;;;;6.55;1.30;;;15.40;99.90;;;;;;4720221;30;20052;-69
2022/07/08 02:58:20;;;;;;;5.53;0.98;;;15.40;99.90;;;;;;4720328;30;20083;-69
2022/07/08 03:00:46;;;;;;;6.45;1.00;;;15.50;99.90;;;;;;4720003;30;20053;-69
2022/07/08 03:03:11;;;;;;;8.43;1.60;;;15.50;99.90;;;;;;4720046;30;20091;-69
2022/07/08 03:05:37;;;;;;;20.02;2.40;;;15.50;99.90;;;;;;4719676;30;20089;-70
2022/07/08 03:08:03;;;;;;;12.65;1.80;;;15.50;99.90;;;;;;4720255;30;20048;-69
2022/07/08 03:10:29;;;;;;;10.38;1.80;;;15.50;99.90;;;;;;4719956;30;20048;-69
2022/07/08 03:12:55;;;;;;;13.85;2.63;;;15.50;99.90;;;;;;4720202;30;20049;-69
2022/07/08 03:15:20;;;;;;;15.60;2.55;;;15.50;99.90;;;;;;4719487;30;20049;-70
2022/07/08 03:17:46;;;;;;;10.35;1.85;;;15.50;99.90;;;;;;4722734;30;20077;-69
2022/07/08 03:20:12;;;;;;;10.40;1.40;;;15.50;99.90;;;;;;4722856;30;20064;-69
2022/07/08 03:22:38;;;;;;;9.75;1.55;;;15.50;99.90;;;;;;4722806;30;20044;-69
2022/07/08 03:25:04;;;;;;;6.75;1.70;;;15.50;99.90;;;;;;4723083;30;20049;-69
2022/07/08 03:27:29;;;;;;;7.07;1.40;;;15.50;99.90;;;;;;4723059;30;20063;-69
2022/07/08 03:29:55;;;;;;;6.82;1.10;;;15.50;99.90;;;;;;4722803;30;20414;-69
2022/07/08 03:32:23;;;;;;;6.45;1.33;;;15.50;99.90;;;;;;4722761;30;20048;-69
2022/07/08 03:34:49;;;;;;;4.10;1.20;;;15.50;99.90;;;;;;4722522;30;20329;-70
2022/07/08 03:37:15;;;;;;;3.55;1.00;;;15.40;99.90;;;;;;4722870;30;20052;-69
2022/07/08 03:39:41;;;;;;;5.40;1.38;;;15.40;99.90;;;;;;4721644;30;20057;-69
2022/07/08 03:42:07;;;;;;;6.70;1.30;;;15.20;99.90;;;;;;4722798;30;20041;-69
2022/07/08 03:44:32;;;;;;;9.00;2.10;;;15.20;99.90;;;;;;4722116;30;20128;-69
2022/07/08 03:46:58;;;;;;;9.95;1.40;;;15.20;99.90;;;;;;4722508;30;20410;-70
2022/07/08 03:49:24;;;;;;;4.40;1.25;;;15.10;99.90;;;;;;4722381;30;20045;-69
2022/07/08 03:51:50;;;;;;;8.27;1.75;;;15.10;99.90;;;;;;4722733;30;20037;-68
2022/07/08 03:54:15;;;;;;;11.23;1.83;;;15.00;99.90;;;;;;4722380;30;20075;-68
2022/07/08 03:56:41;;;;;;;7.95;1.50;;;15.10;99.90;;;;;;4722473;30;20041;-70
2022/07/08 03:59:07;;;;;;;12.55;2.05;;;15.00;99.90;;;;;;4722529;30;20051;-68
2022/07/08 04:01:33;;;;;;;6.93;1.55;;;15.10;99.90;;;;;;4722318;30;20056;-69
2022/07/08 04:03:58;;;;;;;11.63;2.05;;;15.10;99.90;;;;;;4721208;30;20053;-69
2022/07/08 04:06:24;;;;;;;11.90;1.90;;;15.20;99.90;;;;;;4721139;30;20402;-69
2022/07/08 04:08:50;;;;;;;14.18;2.00;;;15.20;99.90;;;;;;4722248;30;20467;-69
2022/07/08 04:11:16;;;;;;;12.05;2.10;;;15.10;99.90;;;;;;4722091;30;20057;-69
2022/07/08 04:13:42;;;;;;;11.63;1.83;;;15.10;99.90;;;;;;4722253;30;20048;-69
2022/07/08 04:16:12;;;;;;;7.10;1.67;;;15.20;99.90;;;;;;4720623;30;20447;-69
2022/07/08 04:18:39;;;;;;;7.93;1.50;;;15.30;99.90;;;;;;4721648;30;20451;-69
2022/07/08 04:21:05;;;;;;;10.45;2.10;;;15.30;99.90;;;;;;4722253;30;20352;-69
2022/07/08 04:23:31;;;;;;;12.88;2.30;;;15.30;99.90;;;;;;4722043;30;20049;-69
2022/07/08 04:25:57;;;;;;;11.60;2.22;;;15.30;99.90;;;;;;4722074;30;20056;-69
2022/07/08 04:28:22;;;;;;;17.00;1.80;;;15.40;99.90;;;;;;4721008;30;20041;-69
2022/07/08 04:30:48;;;;;;;7.72;1.60;;;15.50;99.90;;;;;;4722032;30;20088;-69
2022/07/08 04:33:14;;;;;;;12.05;1.83;;;15.50;99.90;;;;;;4721676;30;20139;-69
2022/07/08 04:35:40;;;;;;;10.07;2.05;;;15.50;99.90;;;;;;4721820;30;20045;-70
2022/07/08 04:38:05;;;;;;;7.25;2.22;;;15.40;99.90;;;;;;4721865;30;20138;-69
2022/07/08 04:40:31;;;;;;;11.20;1.73;;;15.50;99.90;;;;;;4721836;30;20391;-69
2022/07/08 04:42:57;;;;;;;9.60;1.88;;;15.60;99.90;;;;;;4721702;30;20049;-69
2022/07/08 04:45:23;;;;;;;14.23;2.28;;;15.70;99.90;;;;;;4721104;30;20049;-69
2022/07/08 04:47:50;;;;;;;10.82;1.88;;;15.90;99.90;;;;;;4721651;30;20056;-69
2022/07/08 04:50:16;;;;;;;10.15;1.80;;;15.90;99.90;;;;;;4720515;30;20092;-69
2022/07/08 04:52:41;;;;;;;12.13;2.17;;;16.10;99.90;;;;;;4720532;30;20432;-69
2022/07/08 04:55:07;;;;;;;13.10;2.33;;;16.00;99.90;;;;;;4721394;30;20099;-68
2022/07/08 04:57:33;;;;;;;13.98;2.05;;;15.70;99.90;;;;;;4721262;30;20061;-68
2022/07/08 04:59:59;;;;;;;8.73;2.33;;;15.60;99.90;;;;;;4721336;30;20085;-69
2022/07/08 05:02:26;;;;;;;16.65;2.80;;;15.60;99.90;;;;;;4721334;30;20128;-69
2022/07/08 05:04:52;;;;;;;13.95;2.03;;;15.70;99.90;;;;;;4721425;30;20049;-69
2022/07/08 05:07:18;;;;;;;12.27;2.30;;;15.90;99.90;;;;;;4721259;30;20122;-69
2022/07/08 05:09:44;;;;;;;17.40;2.50;;;16.00;99.90;;;;;;4721425;30;20091;-70
2022/07/08 05:12:10;;;;;;;16.42;2.85;;;15.90;99.90;;;;;;4721301;30;20068;-70
2022/07/08 05:14:36;;;;;;;18.08;2.65;;;15.80;99.90;;;;;;4720732;30;20049;-70
2022/07/08 05:17:02;;;;;;;16.33;2.10;;;15.70;99.90;;;;;;4721018;30;20068;-70
2022/07/08 05:19:27;;;;;;;13.57;2.30;;;15.60;99.90;;;;;;4720944;30;20432;-70
2022/07/08 05:21:53;;;;;;;15.93;2.53;;;15.70;99.90;;;;;;4720954;30;20045;-70
2022/07/08 05:24:19;;;;;;;16.05;2.40;;;15.80;99.90;;;;;;4720071;30;20053;-70
2022/07/08 05:26:44;;;;;;;12.77;2.15;;;15.90;99.90;;;;;;4719928;30;20064;-70
2022/07/08 05:29:10;;;;;;;14.38;2.38;;;15.90;99.90;;;;;;4720841;30;20045;-70
2022/07/08 05:31:36;;;;;;;11.43;2.42;;;15.90;99.90;;;;;;4719812;30;20339;-70
2022/07/08 05:34:01;;;;;;;15.52;1.80;;;16.00;99.90;;;;;;4720776;30;20130;-70
2022/07/08 05:36:27;;;;;;;12.57;2.65;;;16.00;99.90;;;;;;4720992;30;20048;-70
2022/07/08 05:38:53;;;;;;;10.50;2.03;;;16.10;99.90;;;;;;4720650;30;20440;-70
2022/07/08 05:41:18;;;;;;;15.18;2.72;;;16.20;99.90;;;;;;4720719;30;20045;-70
2022/07/08 05:43:44;;;;;;;14.07;2.20;;;16.30;99.90;;;;;;4720778;30;20461;-70
2022/07/08 05:46:10;;;;;;;13.38;2.10;;;16.30;99.90;;;;;;4720181;30;20416;-70
2022/07/08 05:48:35;;;;;;;10.93;1.75;;;16.50;99.90;;;;;;4719880;30;20336;-70
2022/07/08 05:51:01;;;;;;;15.98;1.92;;;16.50;99.90;;;;;;4720752;30;20048;-70
2022/07/08 05:53:27;;;;;;;11.90;1.83;;;16.50;99.90;;;;;;4720856;30;20049;-70
2022/07/08 05:55:52;;;;;;;14.10;1.92;;;16.70;99.90;;;;;;4720701;30;20060;-70
2022/07/08 05:58:18;;;;;;;12.32;1.95;;;16.90;99.90;;;;;;4720597;30;20053;-70
2022/07/08 06:00:44;;;;;;;12.30;2.28;;;16.90;99.90;;;;;;4720278;30;20129;-70
2022/07/08 06:03:09;;;;;;;14.90;2.58;;;16.90;99.90;;;;;;4720546;30;20126;-70
2022/07/08 06:05:35;;;;;;;14.43;2.20;;;16.80;99.90;;;;;;4720516;30;20037;-70
2022/07/08 06:08:00;;;;;;;16.02;2.08;;;16.90;99.90;;;;;;4719565;30;20398;-70
2022/07/08 06:10:26;;;;;;;13.25;2.75;;;17.00;99.90;;;;;;4720514;30;20053;-70
2022/07/08 06:12:53;;;;;;;14.43;2.35;;;17.00;99.90;;;;;;4719481;30;20056;-70
2022/07/08 06:15:22;;;;;;;12.35;2.17;;;17.10;99.90;;;;;;4720041;30;20344;-70
2022/07/08 06:17:48;;;;;;;17.00;2.70;;;17.20;99.90;;;;;;4720148;30;20470;-70
2022/07/08 06:20:14;;;;;;;9.77;1.85;;;17.20;99.90;;;;;;4720612;30;20053;-70
2022/07/08 06:22:40;;;;;;;12.48;2.30;;;17.30;99.90;;;;;;4719340;30;20060;-70
2022/07/08 06:25:07;;;;;;;13.30;1.95;;;17.40;99.90;;;;;;4718865;30;20179;-70
2022/07/08 06:27:32;;;;;;;12.82;1.88;;;17.30;99.90;;;;;;4720293;30;20425;-70
2022/07/08 06:29:58;;;;;;;10.70;2.05;;;17.40;99.90;;;;;;4720167;30;20124;-70
2022/07/08 06:32:24;;;;;;;9.75;2.20;;;17.50;99.90;;;;;;4720394;30;20492;-70
2022/07/08 06:34:50;;;;;;;8.75;1.88;;;17.50;99.90;;;;;;4720370;30;20424;-70
2022/07/08 06:37:15;;;;;;;14.73;2.33;;;17.60;99.90;;;;;;4720546;30;20045;-70
2022/07/08 06:39:41;;;;;;;15.38;2.00;;;17.60;99.90;;;;;;4720198;30;20126;-70
2022/07/08 06:42:07;;;;;;;8.48;1.58;;;17.80;99.90;;;;;;4720275;30;20400;-70
2022/07/08 06:44:33;;;;;;;13.60;2.25;;;17.70;99.90;;;;;;4718757;30;20053;-71
2022/07/08 06:46:59;;;;;;;15.15;2.20;;;17.70;99.90;;;;;;4719232;30;20045;-70
2022/07/08 06:49:24;;;;;;;16.52;2.15;;;17.60;99.90;;;;;;4719088;30;20049;-70
2022/07/08 06:51:50;;;;;;;12.02;2.30;;;17.70;99.90;;;;;;4722232;30;20081;-70
2022/07/08 06:57:01;;;;;;;11.98;1.95;;;17.80;99.90;;;;;;4722375;30;20053;-70
2022/07/08 06:59:28;;;;;;;10.93;1.80;;;17.90;99.90;;;;;;4723577;30;20049;-70
2022/07/08 07:01:54;;;;;;;10.35;1.70;;;17.90;99.90;;;;;;4723276;30;20049;-70
2022/07/08 07:04:19;;;;;;;14.48;2.10;;;17.90;99.90;;;;;;4723312;30;20049;-69
2022/07/08 07:06:46;;;;;;;14.45;2.13;;;17.90;99.90;;;;;;4723006;30;20128;-69
2022/07/08 07:09:12;;;;;;;13.93;2.00;;;17.90;99.90;;;;;;4723344;30;20081;-69
2022/07/08 07:11:39;;;;;;;11.23;1.98;;;17.90;99.90;;;;;;4723066;30;20410;-70
2022/07/08 07:14:05;;;;;;;11.65;1.65;;;18.00;99.90;;;;;;4723204;30;20049;-70
2022/07/08 07:16:31;;;;;;;17.40;2.30;;;18.30;99.90;;;;;;4722602;30;20423;-70
2022/07/08 07:18:57;;;;;;;20.05;2.33;;;18.40;99.90;;;;;;4722820;30;20065;-70
2022/07/08 07:21:22;;;;;;;13.57;2.60;;;18.50;99.90;;;;;;4722963;30;20354;-69
2022/07/08 07:23:48;;;;;;;10.10;2.22;;;18.50;99.90;;;;;;4722824;30;20056;-69
2022/07/08 07:26:14;;;;;;;13.18;1.88;;;18.40;99.90;;;;;;4721841;30;20049;-70
2022/07/08 07:28:40;;;;;;;16.05;2.25;;;18.60;99.90;;;;;;4722973;30;20052;-70
2022/07/08 07:31:06;;;;;;;15.88;2.17;;;18.60;99.90;;;;;;4722839;30;20049;-70
2022/07/08 07:33:32;;;;;;;7.35;2.00;;;18.70;99.90;;;;;;4722863;30;20072;-70
2022/07/08 07:35:57;;;;;;;9.90;1.77;;;18.70;99.90;;;;;;4722809;30;20052;-70
2022/07/08 07:38:23;;;;;;;9.48;1.63;;;18.60;99.90;;;;;;4722892;30;20049;-69
2022/07/08 07:40:49;;;;;;;8.77;1.90;;;18.80;99.90;;;;;;4722681;30;20045;-69
2022/07/08 07:43:15;;;;;;;9.73;1.90;;;18.90;99.90;;;;;;4722675;30;20048;-70
2022/07/08 07:45:40;;;;;;;12.20;1.52;;;18.90;99.90;;;;;;4721008;30;20367;-70
2022/07/08 07:48:06;;;;;;;10.05;1.88;;;19.00;99.90;;;;;;4722760;30;20053;-74
2022/07/08 07:50:32;;;;;;;9.88;1.70;;;18.90;99.90;;;;;;4722578;30;20049;-68
2022/07/08 07:52:57;;;;;;;10.02;1.55;;;18.90;99.90;;;;;;4724476;30;20045;-70
2022/07/08 07:55:23;;;;;;;10.00;2.33;;;19.10;99.90;;;;;;4722402;30;20052;-69
2022/07/08 07:57:49;;;;;;;10.07;1.80;;;19.20;99.90;;;;;;4722386;30;20056;-69
2022/07/08 08:00:16;;;;;;;10.02;2.03;;;19.10;99.90;;;;;;4721308;30;20064;-69
2022/07/08 08:02:42;;;;;;;12.20;1.73;;;19.20;99.90;;;;;;4721770;30;20045;-69
2022/07/08 08:05:09;;;;;;;13.80;2.20;;;18.90;99.90;;;;;;4722439;30;20049;-69
2022/07/08 08:07:38;;;;;;;11.05;2.33;;;18.90;99.90;;;;;;4722213;30;20045;-69
2022/07/08 08:10:04;;;;;;;11.13;1.70;;;19.00;99.90;;;;;;4722096;30;20084;-70
2022/07/08 08:12:30;;;;;;;12.95;2.10;;;18.90;99.90;;;;;;4721945;30;20436;-69
2022/07/08 08:14:56;;;;;;;10.43;2.22;;;19.10;99.90;;;;;;4721924;30;20049;-69
2022/07/08 08:17:22;;;;;;;12.98;2.10;;;19.20;99.90;;;;;;4721971;30;20056;-69
2022/07/08 08:19:48;;;;;;;10.63;1.88;;;19.30;99.90;;;;;;4722137;30;20061;-69
2022/07/08 08:22:14;;;;;;;10.05;2.03;;;19.40;99.90;;;;;;4721973;30;20044;-69
2022/07/08 08:24:39;;;;;;;8.57;2.45;;;19.30;99.90;;;;;;4721938;30;20091;-69
2022/07/08 08:27:05;;;;;;;6.93;2.10;;;19.40;99.90;;;;;;4721993;30;20041;-69
2022/07/08 08:29:31;;;;;;;10.30;1.88;;;19.60;99.90;;;;;;4721926;30;20087;-69
2022/07/08 08:31:57;;;;;;;9.85;1.85;;;19.40;99.90;;;;;;4721751;30;20049;-69
2022/07/08 08:34:22;;;;;;;13.27;2.20;;;19.20;99.90;;;;;;4721941;30;20037;-69
2022/07/08 08:36:48;;;;;;;7.13;1.85;;;19.20;99.90;;;;;;4721958;30;20084;-69
2022/07/08 08:39:14;;;;;;;8.63;1.60;;;19.30;99.90;;;;;;4721671;30;20477;-70
2022/07/08 08:41:41;;;;;;;18.13;2.17;;;19.30;99.90;;;;;;4721606;30;20159;-69
2022/07/08 08:44:07;;;;;;;10.32;2.08;;;19.40;99.90;;;;;;4721665;30;20056;-69
2022/07/08 08:46:33;;;;;;;11.75;2.10;;;19.40;99.90;;;;;;4721342;30;20103;-69
2022/07/08 08:49:00;;;;;;;10.93;2.17;;;19.40;99.90;;;;;;4721554;30;20395;-69
2022/07/08 08:51:30;;;;;;;9.80;2.00;;;19.40;99.90;;;;;;4721421;30;20440;-69
2022/07/08 08:53:58;;;;;;;6.78;1.90;;;19.60;99.90;;;;;;4721250;30;20458;-69
2022/07/08 08:56:26;;;;;;;10.25;2.00;;;19.50;99.90;;;;;;4721515;30;20087;-69
2022/07/08 08:58:54;;;;;;;9.13;2.53;;;19.40;99.90;;;;;;4720519;30;20064;-69
2022/07/08 09:01:20;;;;;;;10.77;1.90;;;19.20;99.90;;;;;;4721354;30;20128;-69
2022/07/08 09:03:46;;;;;;;12.23;1.70;;;19.10;99.90;;;;;;4721518;30;20053;-69
2022/07/08 09:06:12;;;;;;;10.27;1.80;;;19.10;99.90;;;;;;4721150;30;20055;-69
2022/07/08 09:08:39;;;;;;;8.07;1.92;;;19.10;99.90;;;;;;4721096;30;20037;-69
2022/07/08 09:11:06;;;;;;;10.45;2.15;;;19.20;99.90;;;;;;4721254;30;20053;-69
2022/07/08 09:13:32;;;;;;;12.23;1.80;;;19.40;99.90;;;;;;4720984;30;20081;-69
2022/07/08 09:15:59;;;;;;;8.40;1.40;;;19.40;99.90;;;;;;4720978;30;20053;-69
2022/07/08 09:18:34;;;;;;;8.85;1.90;;;19.40;99.90;;;;;;4720825;30;20409;-68
2022/07/08 09:21:01;;;;;;;10.30;1.77;;;19.60;99.90;;;;;;4721083;30;20052;-69
2022/07/08 09:23:32;;;;;;;8.50;1.80;;;19.80;99.90;;;;;;4721093;30;20045;-69
2022/07/08 09:26:03;;;;;;;6.65;1.70;;;19.80;99.90;;;;;;4719920;30;20056;-69
2022/07/08 09:28:31;;;;;;;6.53;1.70;;;19.80;99.90;;;;;;4720844;30;20126;-69
2022/07/08 09:30:58;;;;;;;11.23;1.75;;;19.90;99.90;;;;;;4720903;30;20395;-78
2022/07/08 09:33:25;;;;;;;11.75;2.00;;;19.90;99.90;;;;;;4720823;30;20041;-69
2022/07/08 09:35:51;;;;;;;8.10;1.70;;;19.70;99.90;;;;;;4720738;30;20057;-69
2022/07/08 09:38:21;;;;;;;6.90;1.45;;;19.80;99.90;;;;;;4721089;30;20340;-69
2022/07/08 09:41:03;;;;;;;10.85;1.65;;;19.90;99.90;;;;;;4720688;30;20057;-70
2022/07/08 09:43:30;;;;;;;9.60;1.65;;;20.00;99.90;;;;;;4720945;30;20055;-80
2022/07/08 09:46:07;;;;;;;9.82;1.77;;;20.00;99.90;;;;;;4719442;30;20049;-75
2022/07/08 09:48:33;;;;;;;6.65;1.50;;;19.90;99.90;;;;;;4719909;30;20047;-77
2022/07/08 09:51:00;;;;;;;7.55;1.63;;;19.70;99.90;;;;;;4720193;30;20108;-80
2022/07/08 09:53:28;;;;;;;8.25;1.50;;;19.60;99.90;;;;;;4720561;30;20041;-77
2022/07/08 09:55:56;;;;;;;8.88;1.45;;;19.60;99.90;;;;;;4720698;30;20040;-71
2022/07/08 09:58:23;;;;;;;13.25;1.58;;;19.60;99.90;;;;;;4720501;30;20314;-73
2022/07/08 10:00:51;;;;;;;5.38;1.33;;;19.90;99.90;;;;;;4720437;30;20053;-70
2022/07/08 10:03:17;;;;;;;15.68;1.90;;;20.10;99.90;;;;;;4720400;30;20049;-83
2022/07/08 10:05:44;;;;;;;9.88;2.08;;;20.30;99.90;;;;;;4704803;30;20057;-71
2022/07/08 10:08:10;;;;;;;8.30;1.73;;;20.30;99.90;;;;;;4720702;30;20053;-71
2022/07/08 10:10:38;;;;;;;8.65;1.60;;;20.40;99.90;;;;;;4720518;30;20053;-69
2022/07/08 10:13:04;;;;;;;8.80;1.40;;;20.40;99.90;;;;;;4720340;30;20041;-70
2022/07/08 10:15:32;;;;;;;6.13;1.65;;;20.30;99.90;;;;;;4718886;30;20061;-71
2022/07/08 10:18:05;;;;;;;6.15;1.80;;;20.50;99.90;;;;;;4720463;30;20073;-71
2022/07/08 10:20:35;;;;;;;10.15;1.67;;;20.50;99.90;;;;;;4720369;30;20057;-71
2022/07/08 10:23:07;;;;;;;10.38;2.30;;;20.40;99.90;;;;;;4720268;30;20061;-71
2022/07/08 10:25:33;;;;;;;6.07;1.70;;;20.40;99.90;;;;;;4720367;30;20048;-71
2022/07/08 10:28:10;;;;;;;9.80;1.73;;;20.40;99.90;;;;;;4722866;30;20049;-72
2022/07/08 10:30:50;;;;;;;9.30;1.95;;;20.50;99.90;;;;;;4724083;30;20045;-71
2022/07/08 10:33:26;;;;;;;7.95;2.10;;;20.70;99.90;;;;;;4723726;30;20111;-71
2022/07/08 10:36:02;;;;;;;;;;;20.70;99.90;;;;;;4724327;30;20045;-83
2022/07/08 10:38:37;;;;;;;9.27;1.50;;;20.40;99.90;;;;;;4722905;30;20013;-82
2022/07/08 10:41:06;;;;;;;6.90;1.55;;;20.20;99.90;;;;;;4722653;30;20053;-82
2022/07/08 10:43:32;;;;;;;8.07;1.55;;;20.00;99.90;;;;;;4723705;30;20409;-80
2022/07/08 10:46:00;;;;;;;10.85;1.73;;;20.10;99.90;;;;;;4722117;30;20057;-80
2022/07/08 10:48:27;;;;;;;10.40;1.70;;;20.10;99.90;;;;;;4723494;30;20041;-80
2022/07/08 10:50:53;;;;;;;7.47;1.80;;;20.20;99.90;;;;;;4723494;30;20084;-85
2022/07/08 10:53:19;;;;;;;8.07;1.90;;;20.40;99.90;;;;;;4722582;30;20048;-71
2022/07/08 10:55:46;;;;;;;6.57;1.77;;;20.30;99.90;;;;;;4723572;30;20102;-70
2022/07/08 10:58:12;;;;;;;12.18;2.20;;;20.40;99.90;;;;;;4708126;30;20091;-71
2022/07/08 11:00:39;;;;;;;9.30;1.80;;;20.80;99.90;;;;;;4724533;30;20076;-85
2022/07/08 11:03:08;;;;;;;6.57;1.85;;;20.80;99.90;;;;;;4708202;30;20343;-76
2022/07/08 11:05:42;;;;;;;10.32;1.65;;;20.80;99.90;;;;;;4723471;30;20064;-91
2022/07/08 11:08:20;;;;;;;6.30;2.03;;;21.10;99.90;;;;;;4722447;30;20037;-71
2022/07/08 11:10:49;;;;;;;6.97;1.63;;;21.00;99.90;;;;;;4722379;30;20318;-73
2022/07/08 11:13:15;;;;;;;8.98;2.33;;;21.00;99.90;;;;;;4723228;30;20052;-70
2022/07/08 11:15:41;;;;;;;6.38;1.70;;;21.10;99.90;;;;;;4722929;30;20048;-71
2022/07/08 11:18:07;;;;;;;6.47;1.80;;;21.50;99.90;;;;;;4722792;30;20105;-71
2022/07/08 11:20:35;;;;;;;7.90;2.13;;;22.00;99.90;;;;;;4723101;30;20114;-70
2022/07/08 11:23:05;;;;;;;9.80;2.17;;;22.40;99.90;;;;;;4722029;30;20060;-70
2022/07/08 11:25:31;;;;;;;5.13;1.48;;;22.60;99.90;;;;;;4722886;30;20045;-70
2022/07/08 11:27:57;;;;;;;9.45;1.90;;;22.60;99.90;;;;;;4722962;30;20072;-70
2022/07/08 11:30:23;;;;;;;7.07;1.95;;;22.60;99.90;;;;;;4722642;30;20092;-71
2022/07/08 11:32:49;;;;;;;9.25;2.42;;;22.20;99.90;;;;;;4723002;30;20075;-71
2022/07/08 11:35:17;;;;;;;8.38;1.67;;;22.40;99.90;;;;;;4721908;30;20048;-70
2022/07/08 11:37:46;;;;;;;6.65;1.67;;;22.70;99.90;;;;;;4723542;30;20056;-71
2022/07/08 11:40:13;;;;;;;9.32;2.05;;;23.10;99.90;;;;;;4721771;30;20049;-70
2022/07/08 11:42:40;;;;;;;11.93;1.83;;;23.30;99.90;;;;;;4721605;30;20081;-73
2022/07/08 11:45:08;;;;;;;14.60;2.70;;;23.30;99.90;;;;;;4722081;30;20060;-73
2022/07/08 11:47:34;;;;;;;6.32;1.50;;;23.40;99.90;;;;;;4722741;30;20369;-84
2022/07/08 11:50:00;;;;;;;9.48;1.42;;;22.80;99.90;;;;;;4707201;30;20049;-83
2022/07/08 11:52:27;;;;;;;7.05;2.05;;;22.60;99.90;;;;;;4721678;30;20096;-74
2022/07/08 11:54:54;;;;;;;6.63;1.65;;;22.30;99.90;;;;;;4722548;30;20060;-71
2022/07/08 11:57:20;;;;;;;5.88;1.42;;;22.50;99.90;;;;;;4722207;30;20447;-73
2022/07/08 11:59:48;;;;;;;6.72;1.50;;;22.70;99.90;;;;;;4722246;30;20045;-73
2022/07/08 12:02:18;;;;;;;8.93;1.80;;;22.90;99.90;;;;;;4722527;30;20052;-73
2022/07/08 12:04:49;;;;;;;11.45;1.80;;;23.10;99.90;;;;;;4722500;30;20072;-89
2022/07/08 12:07:28;;;;;;;5.90;1.60;;;23.50;99.90;;;;;;4722433;30;20499;-70
2022/07/08 12:10:03;;;;;;;8.15;2.20;;;23.60;99.90;;;;;;4722038;30;20037;-71
2022/07/08 12:12:30;;;;;;;8.87;2.00;;;24.10;99.90;;;;;;4722349;30;20340;-70
2022/07/08 12:14:57;;;;;;;8.95;1.90;;;24.10;99.90;;;;;;4721942;30;20118;-88
2022/07/08 12:17:27;;;;;;;8.43;1.90;;;23.90;99.90;;;;;;4706420;30;20088;-69
2022/07/08 12:19:55;;;;;;;10.77;1.58;;;23.50;99.90;;;;;;4722300;30;20044;-68
2022/07/08 12:22:49;;;;;;;8.57;2.20;;;23.40;99.90;;;;;;4720174;30;20060;-69
2022/07/08 12:25:16;;;;;;;10.82;1.95;;;23.70;99.90;;;;;;4712276;30;20049;-68
2022/07/08 12:27:43;;;;;;;10.18;2.88;;;24.20;99.90;;;;;;4721899;30;20128;-68
2022/07/08 12:30:09;;;;;;;8.55;2.47;;;24.10;99.90;;;;;;4706366;30;20045;-68
2022/07/08 12:32:41;;;;;;;9.25;1.92;;;24.10;99.90;;;;;;4704553;30;20045;-68
2022/07/08 12:35:09;;;;;;;7.85;2.35;;;24.00;99.90;;;;;;4713020;30;20052;-68
2022/07/08 12:37:35;;;;;;;14.63;2.65;;;24.20;99.90;;;;;;4720725;30;20053;-68
2022/07/08 12:40:15;;;;;;;9.15;2.30;;;24.10;99.90;;;;;;4721524;30;20053;-68
2022/07/08 12:42:42;;;;;;;10.07;2.30;;;24.00;99.90;;;;;;4721947;30;20150;-68
2022/07/08 12:45:14;;;;;;;12.70;2.45;;;24.00;99.90;;;;;;4721135;30;20060;-68